sensor_id;sensor_type;location;lat;lon;timestamp;pressure;altitude;pressure_sealevel;temperature;humidity
70314;BME280;57725;47.526;18.986;2022-10-14T00:00:45;100237.69;;;13.31;90.75
70314;BME280;57725;47.526;18.986;2022-10-14T00:03:10;100231.50;;;13.32;90.94
70314;BME280;57725;47.526;18.986;2022-10-14T00:05:39;100232.50;;;13.30;90.66
70314;BME280;57725;47.526;18.986;2022-10-14T00:08:07;100230.72;;;13.30;90.76
70314;BME280;57725;47.526;18.986;2022-10-14T00:10:38;100228.94;;;13.31;90.92
70314;BME280;57725;47.526;18.986;2022-10-14T00:13:06;100225.53;;;13.29;90.75
70314;BME280;57725;47.526;18.986;2022-10-14T00:15:36;100230.72;;;13.30;90.90
70314;BME280;57725;47.526;18.986;2022-10-14T00:18:02;100228.16;;;13.29;90.79
70314;BME280;57725;47.526;18.986;2022-10-14T00:20:27;100216.81;;;13.28;90.78
70314;BME280;57725;47.526;18.986;2022-10-14T00:22:56;100214.19;;;13.28;90.83
70314;BME280;57725;47.526;18.986;2022-10-14T00:25:23;100223.84;;;13.28;90.70
70314;BME280;57725;47.526;18.986;2022-10-14T00:27:50;100222.13;;;13.27;90.79
70314;BME280;57725;47.526;18.986;2022-10-14T00:30:16;100216.88;;;13.27;90.81
70314;BME280;57725;47.526;18.986;2022-10-14T00:32:41;100216.88;;;13.27;90.66
70314;BME280;57725;47.526;18.986;2022-10-14T00:35:07;100222.13;;;13.27;90.83
70314;BME280;57725;47.526;18.986;2022-10-14T00:37:32;100221.31;;;13.26;90.85
70314;BME280;57725;47.526;18.986;2022-10-14T00:40:00;100216.13;;;13.25;90.87
70314;BME280;57725;47.526;18.986;2022-10-14T00:42:25;100224.00;;;13.25;90.85
70314;BME280;57725;47.526;18.986;2022-10-14T00:44:59;100217.91;;;13.24;90.84
70314;BME280;57725;47.526;18.986;2022-10-14T00:47:24;100211.81;;;13.24;90.94
70314;BME280;57725;47.526;18.986;2022-10-14T00:49:50;100208.31;;;13.23;90.71
70314;BME280;57725;47.526;18.986;2022-10-14T00:52:19;100209.19;;;13.24;90.89
70314;BME280;57725;47.526;18.986;2022-10-14T00:54:53;100210.94;;;13.23;90.84
70314;BME280;57725;47.526;18.986;2022-10-14T00:57:20;100202.22;;;13.23;90.67
70314;BME280;57725;47.526;18.986;2022-10-14T00:59:48;100204.84;;;13.23;90.80
70314;BME280;57725;47.526;18.986;2022-10-14T01:02:13;100203.16;;;13.22;90.76
70314;BME280;57725;47.526;18.986;2022-10-14T01:04:41;100203.16;;;13.22;90.81
70314;BME280;57725;47.526;18.986;2022-10-14T01:12:56;100197.97;;;13.20;90.79
70314;BME280;57725;47.526;18.986;2022-10-14T01:15:35;100197.13;;;13.20;90.76
70314;BME280;57725;47.526;18.986;2022-10-14T01:21:00;100193.63;;;13.19;90.70
70314;BME280;57725;47.526;18.986;2022-10-14T01:26:57;100197.19;;;13.18;90.73
70314;BME280;57725;47.526;18.986;2022-10-14T01:29:47;100189.31;;;13.18;90.88
70314;BME280;57725;47.526;18.986;2022-10-14T01:32:28;100196.34;;;13.18;90.80
70314;BME280;57725;47.526;18.986;2022-10-14T01:38:13;100188.53;;;13.16;90.78
70314;BME280;57725;47.526;18.986;2022-10-14T01:41:18;100183.28;;;13.16;90.95
70314;BME280;57725;47.526;18.986;2022-10-14T01:43:47;100186.84;;;13.15;90.79
70314;BME280;57725;47.526;18.986;2022-10-14T01:46:17;100181.66;;;13.14;90.85
70314;BME280;57725;47.526;18.986;2022-10-14T01:48:50;100176.41;;;13.14;90.84
70314;BME280;57725;47.526;18.986;2022-10-14T01:51:25;100174.66;;;13.14;90.91
70314;BME280;57725;47.526;18.986;2022-10-14T01:53:56;100176.41;;;13.14;90.80
70314;BME280;57725;47.526;18.986;2022-10-14T01:56:31;100180.00;;;13.11;90.73
70314;BME280;57725;47.526;18.986;2022-10-14T01:59:00;100173.84;;;13.12;90.89
70314;BME280;57725;47.526;18.986;2022-10-14T02:01:29;100172.06;;;13.13;90.77
70314;BME280;57725;47.526;18.986;2022-10-14T02:03:54;100176.47;;;13.12;90.62
70314;BME280;57725;47.526;18.986;2022-10-14T02:06:31;100182.63;;;13.11;90.79
70314;BME280;57725;47.526;18.986;2022-10-14T02:09:00;100182.63;;;13.11;90.75
70314;BME280;57725;47.526;18.986;2022-10-14T02:11:33;100187.03;;;13.11;90.70
70314;BME280;57725;47.526;18.986;2022-10-14T02:14:26;100180.09;;;13.10;90.74
70314;BME280;57725;47.526;18.986;2022-10-14T02:17:01;100177.47;;;13.10;90.77
70314;BME280;57725;47.526;18.986;2022-10-14T02:19:37;100177.47;;;13.10;90.76
70314;BME280;57725;47.526;18.986;2022-10-14T02:22:11;100180.94;;;13.10;90.74
70314;BME280;57725;47.526;18.986;2022-10-14T02:24:46;100174.91;;;13.08;90.80
70314;BME280;57725;47.526;18.986;2022-10-14T02:27:20;100179.22;;;13.09;90.71
70314;BME280;57725;47.526;18.986;2022-10-14T02:29:49;100176.69;;;13.07;90.67
70314;BME280;57725;47.526;18.986;2022-10-14T02:32:20;100175.81;;;13.07;90.67
70314;BME280;57725;47.526;18.986;2022-10-14T02:34:51;100167.94;;;13.07;90.68
70314;BME280;57725;47.526;18.986;2022-10-14T02:37:20;100170.56;;;13.07;90.80
70314;BME280;57725;47.526;18.986;2022-10-14T02:40:06;100169.72;;;13.06;90.87
70314;BME280;57725;47.526;18.986;2022-10-14T02:42:33;100171.50;;;13.06;90.63
70314;BME280;57725;47.526;18.986;2022-10-14T02:45:01;100168.00;;;13.05;90.78
70314;BME280;57725;47.526;18.986;2022-10-14T02:47:30;100163.69;;;13.04;90.75
70314;BME280;57725;47.526;18.986;2022-10-14T02:49:55;100175.03;;;13.05;90.65
70314;BME280;57725;47.526;18.986;2022-10-14T02:52:20;100165.47;;;13.04;90.78
70314;BME280;57725;47.526;18.986;2022-10-14T02:54:46;100168.19;;;13.02;90.59
70314;BME280;57725;47.526;18.986;2022-10-14T02:57:11;100169.91;;;13.03;90.81
70314;BME280;57725;47.526;18.986;2022-10-14T02:59:37;100168.25;;;13.01;90.70
70314;BME280;57725;47.526;18.986;2022-10-14T03:02:04;100169.97;;;13.02;90.64
70314;BME280;57725;47.526;18.986;2022-10-14T03:04:32;100172.59;;;13.02;90.80
70314;BME280;57725;47.526;18.986;2022-10-14T03:06:57;100182.16;;;13.03;90.83
70314;BME280;57725;47.526;18.986;2022-10-14T03:09:22;100169.09;;;13.01;90.71
70314;BME280;57725;47.526;18.986;2022-10-14T03:11:48;100170.03;;;13.00;90.67
70314;BME280;57725;47.526;18.986;2022-10-14T03:14:13;100170.94;;;12.99;90.73
70314;BME280;57725;47.526;18.986;2022-10-14T03:16:38;100177.91;;;13.00;90.67
70314;BME280;57725;47.526;18.986;2022-10-14T03:19:04;100175.28;;;13.00;90.88
70314;BME280;57725;47.526;18.986;2022-10-14T03:21:29;100177.91;;;13.00;90.66
70314;BME280;57725;47.526;18.986;2022-10-14T03:23:54;100173.56;;;12.99;90.67
70314;BME280;57725;47.526;18.986;2022-10-14T03:26:20;100177.97;;;12.99;90.94
70314;BME280;57725;47.526;18.986;2022-10-14T03:28:48;100174.50;;;12.98;90.76
70314;BME280;57725;47.526;18.986;2022-10-14T03:31:15;100165.84;;;12.96;90.85
70314;BME280;57725;47.526;18.986;2022-10-14T03:33:43;100162.28;;;12.97;90.86
70314;BME280;57725;47.526;18.986;2022-10-14T03:36:08;100158.81;;;12.97;90.83
70314;BME280;57725;47.526;18.986;2022-10-14T03:38:34;100158.81;;;12.97;90.59
70314;BME280;57725;47.526;18.986;2022-10-14T03:40:59;100166.69;;;12.97;90.72
70314;BME280;57725;47.526;18.986;2022-10-14T03:43:27;100160.59;;;12.96;90.70
70314;BME280;57725;47.526;18.986;2022-10-14T03:45:52;100170.22;;;12.96;90.70
70314;BME280;57725;47.526;18.986;2022-10-14T03:48:25;100164.13;;;12.95;90.81
70314;BME280;57725;47.526;18.986;2022-10-14T03:50:50;100161.50;;;12.95;90.89
70314;BME280;57725;47.526;18.986;2022-10-14T03:53:15;100156.34;;;12.94;90.94
70314;BME280;57725;47.526;18.986;2022-10-14T03:55:43;100159.81;;;12.94;90.81
70314;BME280;57725;47.526;18.986;2022-10-14T03:58:10;100153.72;;;12.94;90.76
70314;BME280;57725;47.526;18.986;2022-10-14T04:00:38;100151.09;;;12.94;90.63
70314;BME280;57725;47.526;18.986;2022-10-14T04:03:08;100150.34;;;12.92;90.72
70314;BME280;57725;47.526;18.986;2022-10-14T04:05:35;100148.53;;;12.92;90.68
70314;BME280;57725;47.526;18.986;2022-10-14T04:08:01;100152.84;;;12.93;90.75
70314;BME280;57725;47.526;18.986;2022-10-14T04:10:27;100145.91;;;12.92;90.78
70314;BME280;57725;47.526;18.986;2022-10-14T04:12:55;100142.47;;;12.92;90.84
70314;BME280;57725;47.526;18.986;2022-10-14T04:15:20;100152.00;;;12.93;90.77
70314;BME280;57725;47.526;18.986;2022-10-14T04:17:47;100139.00;;;12.91;90.71
70314;BME280;57725;47.526;18.986;2022-10-14T04:20:15;100142.47;;;12.92;90.83
70314;BME280;57725;47.526;18.986;2022-10-14T04:22:41;100142.53;;;12.90;90.78
70314;BME280;57725;47.526;18.986;2022-10-14T04:25:07;100137.28;;;12.90;90.82
70314;BME280;57725;47.526;18.986;2022-10-14T04:27:33;100145.16;;;12.90;90.78
70314;BME280;57725;47.526;18.986;2022-10-14T04:30:01;100145.16;;;12.90;90.67
70314;BME280;57725;47.526;18.986;2022-10-14T04:32:26;100143.44;;;12.89;90.79
70314;BME280;57725;47.526;18.986;2022-10-14T04:34:54;100134.72;;;12.89;90.48
70314;BME280;57725;47.526;18.986;2022-10-14T04:37:22;100139.97;;;12.89;90.64
70314;BME280;57725;47.526;18.986;2022-10-14T04:39:49;100129.47;;;12.89;90.67
70314;BME280;57725;47.526;18.986;2022-10-14T04:42:17;100141.75;;;12.88;90.75
70314;BME280;57725;47.526;18.986;2022-10-14T04:44:42;100139.13;;;12.88;90.81
70314;BME280;57725;47.526;18.986;2022-10-14T04:47:08;100145.22;;;12.89;90.82
70314;BME280;57725;47.526;18.986;2022-10-14T04:49:35;100141.81;;;12.87;90.71
70314;BME280;57725;47.526;18.986;2022-10-14T04:52:01;100147.06;;;12.87;90.74
70314;BME280;57725;47.526;18.986;2022-10-14T04:54:26;100144.44;;;12.87;90.83
70314;BME280;57725;47.526;18.986;2022-10-14T04:56:52;100148.84;;;12.86;90.84
70314;BME280;57725;47.526;18.986;2022-10-14T04:59:17;100145.38;;;12.86;90.70
70314;BME280;57725;47.526;18.986;2022-10-14T05:01:47;100141.97;;;12.84;90.78
70314;BME280;57725;47.526;18.986;2022-10-14T05:04:13;100146.28;;;12.85;90.70
70314;BME280;57725;47.526;18.986;2022-10-14T05:06:41;100141.03;;;12.85;90.85
70314;BME280;57725;47.526;18.986;2022-10-14T05:09:07;100140.19;;;12.84;90.55
70314;BME280;57725;47.526;18.986;2022-10-14T05:11:32;100137.56;;;12.84;90.72
70314;BME280;57725;47.526;18.986;2022-10-14T05:14:00;100151.59;;;12.83;91.14
70314;BME280;57725;47.526;18.986;2022-10-14T05:16:25;100147.28;;;12.82;90.75
70314;BME280;57725;47.526;18.986;2022-10-14T05:18:51;100149.91;;;12.82;90.79
70314;BME280;57725;47.526;18.986;2022-10-14T05:21:19;100153.38;;;12.83;90.81
70314;BME280;57725;47.526;18.986;2022-10-14T05:23:49;100153.44;;;12.81;90.70
70314;BME280;57725;47.526;18.986;2022-10-14T05:26:14;100155.16;;;12.82;90.92
70314;BME280;57725;47.526;18.986;2022-10-14T05:28:40;100151.66;;;12.82;90.82
70314;BME280;57725;47.526;18.986;2022-10-14T05:31:07;100160.47;;;12.81;90.79
70314;BME280;57725;47.526;18.986;2022-10-14T05:33:33;100152.59;;;12.81;90.70
70314;BME280;57725;47.526;18.986;2022-10-14T05:36:06;100157.84;;;12.81;90.82
70314;BME280;57725;47.526;18.986;2022-10-14T05:38:36;100159.63;;;12.80;90.77
70314;BME280;57725;47.526;18.986;2022-10-14T05:41:04;100162.34;;;12.79;90.83
70314;BME280;57725;47.526;18.986;2022-10-14T05:43:30;100163.19;;;12.79;90.68
70314;BME280;57725;47.526;18.986;2022-10-14T05:45:55;100163.19;;;12.79;90.71
70314;BME280;57725;47.526;18.986;2022-10-14T05:48:20;100163.25;;;12.78;90.74
70314;BME280;57725;47.526;18.986;2022-10-14T05:50:46;100167.56;;;12.79;90.73
70314;BME280;57725;47.526;18.986;2022-10-14T05:53:11;100170.28;;;12.77;90.95
70314;BME280;57725;47.526;18.986;2022-10-14T05:55:39;100177.28;;;12.77;90.69
70314;BME280;57725;47.526;18.986;2022-10-14T05:58:05;100184.25;;;12.78;90.98
70314;BME280;57725;47.526;18.986;2022-10-14T06:00:32;100185.09;;;12.78;90.82
70314;BME280;57725;47.526;18.986;2022-10-14T06:03:11;100178.13;;;12.77;90.71
70314;BME280;57725;47.526;18.986;2022-10-14T06:05:37;100182.53;;;12.77;90.72
70314;BME280;57725;47.526;18.986;2022-10-14T06:08:02;100185.16;;;12.77;90.85
70314;BME280;57725;47.526;18.986;2022-10-14T06:10:29;100185.16;;;12.77;90.85
70314;BME280;57725;47.526;18.986;2022-10-14T06:12:56;100189.56;;;12.76;90.92
70314;BME280;57725;47.526;18.986;2022-10-14T06:15:22;100184.31;;;12.76;90.84
70314;BME280;57725;47.526;18.986;2022-10-14T06:17:47;100179.97;;;12.75;91.00
70314;BME280;57725;47.526;18.986;2022-10-14T06:20:12;100182.59;;;12.75;90.97
70314;BME280;57725;47.526;18.986;2022-10-14T06:22:38;100182.59;;;12.75;90.89
70314;BME280;57725;47.526;18.986;2022-10-14T06:25:04;100180.03;;;12.74;90.92
70314;BME280;57725;47.526;18.986;2022-10-14T06:27:30;100181.75;;;12.75;90.96
70314;BME280;57725;47.526;18.986;2022-10-14T06:29:55;100190.47;;;12.75;90.96
70314;BME280;57725;47.526;18.986;2022-10-14T06:32:23;100183.53;;;12.74;90.81
70314;BME280;57725;47.526;18.986;2022-10-14T06:34:48;100190.53;;;12.74;91.11
70314;BME280;57725;47.526;18.986;2022-10-14T06:37:13;100190.47;;;12.75;90.87
70314;BME280;57725;47.526;18.986;2022-10-14T06:39:39;100187.06;;;12.73;90.97
70314;BME280;57725;47.526;18.986;2022-10-14T06:42:05;100190.53;;;12.74;91.06
70314;BME280;57725;47.526;18.986;2022-10-14T06:44:33;100192.31;;;12.73;90.94
70314;BME280;57725;47.526;18.986;2022-10-14T06:47:01;100189.69;;;12.73;90.98
70314;BME280;57725;47.526;18.986;2022-10-14T06:49:26;100199.31;;;12.73;91.14
70314;BME280;57725;47.526;18.986;2022-10-14T06:51:52;100195.00;;;12.72;90.93
70314;BME280;57725;47.526;18.986;2022-10-14T06:54:17;100193.22;;;12.72;91.06
70314;BME280;57725;47.526;18.986;2022-10-14T06:56:42;100200.25;;;12.72;91.02
70314;BME280;57725;47.526;18.986;2022-10-14T06:59:10;100201.94;;;12.73;90.97
70314;BME280;57725;47.526;18.986;2022-10-14T07:01:35;100200.25;;;12.72;91.12
70314;BME280;57725;47.526;18.986;2022-10-14T07:04:03;100200.25;;;12.72;91.04
70314;BME280;57725;47.526;18.986;2022-10-14T07:06:29;100195.06;;;12.70;91.12
70314;BME280;57725;47.526;18.986;2022-10-14T07:08:55;100189.81;;;12.70;91.04
70314;BME280;57725;47.526;18.986;2022-10-14T07:11:20;100191.53;;;12.71;91.05
70314;BME280;57725;47.526;18.986;2022-10-14T07:13:50;100188.91;;;12.71;91.10
70314;BME280;57725;47.526;18.986;2022-10-14T07:16:16;100193.28;;;12.70;91.17
70314;BME280;57725;47.526;18.986;2022-10-14T07:18:42;100193.28;;;12.70;91.10
70314;BME280;57725;47.526;18.986;2022-10-14T07:21:10;100189.75;;;12.72;91.02
70314;BME280;57725;47.526;18.986;2022-10-14T07:23:35;100192.38;;;12.72;91.02
70314;BME280;57725;47.526;18.986;2022-10-14T07:26:01;100190.69;;;12.70;91.16
70314;BME280;57725;47.526;18.986;2022-10-14T07:28:29;100195.91;;;12.70;91.16
70314;BME280;57725;47.526;18.986;2022-10-14T07:31:04;100189.75;;;12.72;91.10
70314;BME280;57725;47.526;18.986;2022-10-14T07:33:30;100188.06;;;12.70;91.08
70314;BME280;57725;47.526;18.986;2022-10-14T07:36:02;100184.50;;;12.72;91.19
70314;BME280;57725;47.526;18.986;2022-10-14T07:38:29;100184.50;;;12.72;91.15
70314;BME280;57725;47.526;18.986;2022-10-14T07:41:05;100183.66;;;12.71;91.29
70314;BME280;57725;47.526;18.986;2022-10-14T07:43:32;100186.28;;;12.71;91.08
70314;BME280;57725;47.526;18.986;2022-10-14T07:46:04;100187.13;;;12.72;91.21
70314;BME280;57725;47.526;18.986;2022-10-14T07:48:34;100188.06;;;12.70;91.33
70314;BME280;57725;47.526;18.986;2022-10-14T07:51:01;100179.34;;;12.70;91.26
70314;BME280;57725;47.526;18.986;2022-10-14T07:53:29;100179.25;;;12.72;91.29
70314;BME280;57725;47.526;18.986;2022-10-14T07:55:58;100181.88;;;12.72;91.17
70314;BME280;57725;47.526;18.986;2022-10-14T07:58:27;100183.66;;;12.71;91.25
70314;BME280;57725;47.526;18.986;2022-10-14T08:00:53;100176.63;;;12.72;91.34
70314;BME280;57725;47.526;18.986;2022-10-14T08:03:20;100178.41;;;12.71;91.25
70314;BME280;57725;47.526;18.986;2022-10-14T08:05:46;100168.78;;;12.72;91.30
70314;BME280;57725;47.526;18.986;2022-10-14T08:08:15;100171.41;;;12.72;91.14
70314;BME280;57725;47.526;18.986;2022-10-14T08:10:41;100172.25;;;12.72;91.35
70314;BME280;57725;47.526;18.986;2022-10-14T08:13:09;100172.25;;;12.72;91.42
70314;BME280;57725;47.526;18.986;2022-10-14T08:15:39;100169.56;;;12.74;91.40
70314;BME280;57725;47.526;18.986;2022-10-14T08:18:07;100168.69;;;12.73;91.47
70314;BME280;57725;47.526;18.986;2022-10-14T08:20:33;100164.59;;;12.86;92.44
70314;BME280;57725;47.526;18.986;2022-10-14T08:22:59;100153.16;;;12.87;91.65
70314;BME280;57725;47.526;18.986;2022-10-14T08:25:27;100149.63;;;12.88;91.41
70314;BME280;57725;47.526;18.986;2022-10-14T08:27:55;100146.22;;;12.86;91.27
70314;BME280;57725;47.526;18.986;2022-10-14T08:30:27;100151.53;;;12.85;91.32
70314;BME280;57725;47.526;18.986;2022-10-14T08:32:52;100155.16;;;12.82;91.37
70314;BME280;57725;47.526;18.986;2022-10-14T08:35:20;100150.81;;;12.81;91.52
70314;BME280;57725;47.526;18.986;2022-10-14T08:37:57;100143.91;;;12.80;91.35
70314;BME280;57725;47.526;18.986;2022-10-14T08:40:23;100157.94;;;12.79;91.48
70314;BME280;57725;47.526;18.986;2022-10-14T08:48:00;100163.19;;;12.79;91.64
70314;BME280;57725;47.526;18.986;2022-10-14T08:50:33;100161.47;;;12.78;91.48
70314;BME280;57725;47.526;18.986;2022-10-14T08:53:27;100158.00;;;12.78;91.48
70314;BME280;57725;47.526;18.986;2022-10-14T08:56:00;100153.69;;;12.77;91.60
70314;BME280;57725;47.526;18.986;2022-10-14T08:58:35;100163.25;;;12.78;91.63
70314;BME280;57725;47.526;18.986;2022-10-14T09:01:23;100160.63;;;12.78;91.66
70314;BME280;57725;47.526;18.986;2022-10-14T09:03:56;100155.38;;;12.78;91.71
70314;BME280;57725;47.526;18.986;2022-10-14T09:06:28;100164.09;;;12.78;91.60
70314;BME280;57725;47.526;18.986;2022-10-14T09:09:31;100164.94;;;12.79;91.65
70314;BME280;57725;47.526;18.986;2022-10-14T09:12:04;100157.16;;;12.77;91.62
70314;BME280;57725;47.526;18.986;2022-10-14T09:14:35;100158.84;;;12.78;91.67
70314;BME280;57725;47.526;18.986;2022-10-14T09:17:09;100150.06;;;12.79;91.68
70314;BME280;57725;47.526;18.986;2022-10-14T09:19:42;100151.84;;;12.79;91.53
70314;BME280;57725;47.526;18.986;2022-10-14T09:22:13;100148.28;;;12.80;91.56
70314;BME280;57725;47.526;18.986;2022-10-14T09:24:39;100148.28;;;12.80;91.71
70314;BME280;57725;47.526;18.986;2022-10-14T09:27:19;100154.38;;;12.80;91.66
70314;BME280;57725;47.526;18.986;2022-10-14T09:29:58;100152.59;;;12.81;91.72
70314;BME280;57725;47.526;18.986;2022-10-14T09:32:29;100156.06;;;12.81;91.65
70314;BME280;57725;47.526;18.986;2022-10-14T09:34:58;100146.53;;;12.80;91.66
70314;BME280;57725;47.526;18.986;2022-10-14T09:37:29;100151.66;;;12.82;91.69
70314;BME280;57725;47.526;18.986;2022-10-14T09:40:00;100154.28;;;12.82;91.58
70314;BME280;57725;47.526;18.986;2022-10-14T09:45:16;100138.56;;;12.82;91.82
70314;BME280;57725;47.526;18.986;2022-10-14T09:47:53;100150.75;;;12.83;91.71
70314;BME280;57725;47.526;18.986;2022-10-14T09:52:50;100148.13;;;12.83;91.78
70314;BME280;57725;47.526;18.986;2022-10-14T09:55:19;100152.44;;;12.84;91.82
70314;BME280;57725;47.526;18.986;2022-10-14T09:57:46;100141.97;;;12.84;91.74
70314;BME280;57725;47.526;18.986;2022-10-14T10:00:25;100145.44;;;12.84;91.65
70314;BME280;57725;47.526;18.986;2022-10-14T10:02:53;100144.50;;;12.85;91.72
70314;BME280;57725;47.526;18.986;2022-10-14T10:08:14;100148.84;;;12.86;91.89
70314;BME280;57725;47.526;18.986;2022-10-14T10:10:40;100138.34;;;12.86;91.80
70314;BME280;57725;47.526;18.986;2022-10-14T10:13:29;100143.59;;;12.86;91.64
70314;BME280;57725;47.526;18.986;2022-10-14T10:16:02;100134.78;;;12.87;91.86
70314;BME280;57725;47.526;18.986;2022-10-14T10:18:28;100127.00;;;12.86;91.79
70314;BME280;57725;47.526;18.986;2022-10-14T10:21:05;100128.69;;;12.87;91.72
70314;BME280;57725;47.526;18.986;2022-10-14T10:23:31;100134.78;;;12.87;91.73
70314;BME280;57725;47.526;18.986;2022-10-14T10:26:16;100129.56;;;12.87;91.78
70314;BME280;57725;47.526;18.986;2022-10-14T10:28:47;100121.59;;;12.89;91.75
70314;BME280;57725;47.526;18.986;2022-10-14T10:34:12;100119.00;;;12.89;91.80
70314;BME280;57725;47.526;18.986;2022-10-14T10:36:52;100120.69;;;12.90;91.71
70314;BME280;57725;47.526;18.986;2022-10-14T10:39:27;100114.59;;;12.89;91.81
70314;BME280;57725;47.526;18.986;2022-10-14T10:50:23;100101.28;;;12.92;91.99
70314;BME280;57725;47.526;18.986;2022-10-14T10:55:53;100102.16;;;12.93;91.74
70314;BME280;57725;47.526;18.986;2022-10-14T11:06:26;100092.44;;;12.95;91.76
70314;BME280;57725;47.526;18.986;2022-10-14T11:09:21;100088.97;;;12.94;91.94
70314;BME280;57725;47.526;18.986;2022-10-14T11:17:48;100083.63;;;12.96;91.78
70314;BME280;57725;47.526;18.986;2022-10-14T11:20:39;100087.13;;;12.96;91.76
70314;BME280;57725;47.526;18.986;2022-10-14T11:26:09;100074.84;;;12.97;91.82
70314;BME280;57725;47.526;18.986;2022-10-14T11:29:03;100080.03;;;12.98;91.89
70314;BME280;57725;47.526;18.986;2022-10-14T11:32:02;100074.78;;;12.98;91.97
70314;BME280;57725;47.526;18.986;2022-10-14T11:46:12;100057.19;;;13.00;92.00
70314;BME280;57725;47.526;18.986;2022-10-14T11:48:45;100055.47;;;12.99;91.96
70314;BME280;57725;47.526;18.986;2022-10-14T11:54:29;100047.53;;;13.01;91.85
70314;BME280;57725;47.526;18.986;2022-10-14T11:56:56;100055.34;;;13.02;91.87
70314;BME280;57725;47.526;18.986;2022-10-14T11:59:40;100050.09;;;13.02;91.91
70314;BME280;57725;47.526;18.986;2022-10-14T12:07:59;100044.72;;;13.04;91.79
70314;BME280;57725;47.526;18.986;2022-10-14T12:10:32;100047.34;;;13.04;91.80
70314;BME280;57725;47.526;18.986;2022-10-14T12:13:00;100042.97;;;13.04;91.96
70314;BME280;57725;47.526;18.986;2022-10-14T12:15:27;100041.19;;;13.05;91.87
70314;BME280;57725;47.526;18.986;2022-10-14T12:18:00;100035.09;;;13.04;91.84
70314;BME280;57725;47.526;18.986;2022-10-14T12:22:56;100032.38;;;13.06;91.99
70314;BME280;57725;47.526;18.986;2022-10-14T12:25:23;100039.34;;;13.07;92.02
70314;BME280;57725;47.526;18.986;2022-10-14T12:27:54;100027.06;;;13.07;91.81
70314;BME280;57725;47.526;18.986;2022-10-14T12:30:46;100032.25;;;13.09;91.85
70314;BME280;57725;47.526;18.986;2022-10-14T12:33:15;100019.19;;;13.07;91.83
70314;BME280;57725;47.526;18.986;2022-10-14T12:35:55;100019.19;;;13.07;91.98
70314;BME280;57725;47.526;18.986;2022-10-14T12:38:27;100020.88;;;13.09;91.82
70314;BME280;57725;47.526;18.986;2022-10-14T12:40:54;100019.97;;;13.10;91.87
70314;BME280;57725;47.526;18.986;2022-10-14T12:43:41;100014.72;;;13.10;91.72
70314;BME280;57725;47.526;18.986;2022-10-14T12:46:15;100008.53;;;13.11;91.92
70314;BME280;57725;47.526;18.986;2022-10-14T12:48:47;100010.31;;;13.10;91.84
70314;BME280;57725;47.526;18.986;2022-10-14T12:51:17;100014.66;;;13.11;91.99
70314;BME280;57725;47.526;18.986;2022-10-14T12:54:04;100012.88;;;13.12;91.96
70314;BME280;57725;47.526;18.986;2022-10-14T12:56:34;100013.72;;;13.12;91.88
70314;BME280;57725;47.526;18.986;2022-10-14T12:59:05;100012.78;;;13.13;91.97
70314;BME280;57725;47.526;18.986;2022-10-14T13:01:32;100006.69;;;13.13;91.84
70314;BME280;57725;47.526;18.986;2022-10-14T13:04:02;100013.66;;;13.14;91.69
70314;BME280;57725;47.526;18.986;2022-10-14T13:06:39;100011.91;;;13.14;91.94
70314;BME280;57725;47.526;18.986;2022-10-14T13:11:44;100010.97;;;13.15;91.92
70314;BME280;57725;47.526;18.986;2022-10-14T13:14:30;100006.56;;;13.16;91.95
70314;BME280;57725;47.526;18.986;2022-10-14T13:21:58;100007.31;;;13.18;91.97
70314;BME280;57725;47.526;18.986;2022-10-14T13:24:29;100010.03;;;13.16;91.79
70314;BME280;57725;47.526;18.986;2022-10-14T13:27:31;100004.78;;;13.16;91.95
70314;BME280;57725;47.526;18.986;2022-10-14T13:32:52;100002.06;;;13.18;91.92
70314;BME280;57725;47.526;18.986;2022-10-14T13:35:49;100002.06;;;13.18;91.89
70314;BME280;57725;47.526;18.986;2022-10-14T13:38:19;100001.16;;;13.19;91.95
70314;BME280;57725;47.526;18.986;2022-10-14T13:40:50;99995.91;;;13.19;91.92
70314;BME280;57725;47.526;18.986;2022-10-14T13:46:03;99996.75;;;13.19;91.96
70314;BME280;57725;47.526;18.986;2022-10-14T13:48:32;99991.44;;;13.21;91.97
70314;BME280;57725;47.526;18.986;2022-10-14T13:53:48;99997.53;;;13.21;91.93
70314;BME280;57725;47.526;18.986;2022-10-14T13:56:22;99993.13;;;13.22;91.97
70314;BME280;57725;47.526;18.986;2022-10-14T13:58:52;99995.75;;;13.22;91.98
70314;BME280;57725;47.526;18.986;2022-10-14T14:01:24;99986.09;;;13.22;91.93
70314;BME280;57725;47.526;18.986;2022-10-14T14:03:55;99982.63;;;13.22;91.96
70314;BME280;57725;47.526;18.986;2022-10-14T14:06:24;99982.56;;;13.23;91.86
70314;BME280;57725;47.526;18.986;2022-10-14T14:09:03;99979.06;;;13.23;91.83
70314;BME280;57725;47.526;18.986;2022-10-14T14:11:36;99984.31;;;13.23;91.81
70314;BME280;57725;47.526;18.986;2022-10-14T14:18:58;99963.25;;;13.24;91.85
70314;BME280;57725;47.526;18.986;2022-10-14T14:21:27;99965.78;;;13.26;91.90
70314;BME280;57725;47.526;18.986;2022-10-14T14:23:54;99968.41;;;13.26;91.88
70314;BME280;57725;47.526;18.986;2022-10-14T14:26:26;99975.44;;;13.25;91.92
70314;BME280;57725;47.526;18.986;2022-10-14T14:28:53;99968.41;;;13.26;91.95
70314;BME280;57725;47.526;18.986;2022-10-14T14:31:21;99972.72;;;13.27;91.84
70314;BME280;57725;47.526;18.986;2022-10-14T14:33:48;99980.59;;;13.27;91.93
70314;BME280;57725;47.526;18.986;2022-10-14T14:36:15;99977.16;;;13.26;91.95
70314;BME280;57725;47.526;18.986;2022-10-14T14:38:52;99976.19;;;13.27;91.95